Aviation Digital Data Service (ADDS)

Output produced by METARs form (0706 UTC 24 March 2019)
found at http://www.aviationweather.gov/metar/data/
 
VEAT 240700Z 00000KT 4000 HZ NSC 33/20 Q1011 NOSIG
TAF VEAT 240500Z 2406/2415 23003KT 3500 HZ NSC 
     BECMG 2407/2409 5000 HZ
       
VOAT 240530Z 05005KT 6000 SCT015 30/25 Q1013 NOSIG
TAF VOAT 240200Z 2403/2412 02010KT 4000 HZ FEW015 SCT080 
     BECMG 2404/2406 29010KT 6000
       
VIAG 240630Z 30008KT 6000 FEW250 32/09 Q1013 NOSIG
TAF VIAG 240330Z 2406/2418 29005KT 6000 FEW250 
     BECMG 2416/2417 5000 BR SCT250
       
VAAH 240700Z 01003KT 5000 FU NSC 36/10 Q1012 NOSIG
TAF VAAH 240500Z 2406/2415 34006KT 6000 NSC 
     BECMG 241336006KT 4000 FU
       
VIAR 240700Z 27009KT 3500 HZ FEW040 BKN100 23/14 Q1016 NOSIG
TAF VIAR 240500Z 2406/2512 32008KT 5000 HZ -RA SCT040 BKN100 
     BECMG 2415/2419 FEW035CB 
     BECMG 2422/2424 00000KT 3000 BR FEW040 SCT100 
     BECMG 2505/2507 25006KT 5000 HZ
       
VAAU 240600Z 07006KT 6000 NSC 35/11 Q1016 NOSIG
TAF VAAU 240500Z 2406/2415 10005KT 6000 NSC 
     BECMG 2410/2412 25005KT 5000 HZ
       
VEBD 240630Z 07008KT 6000 FEW030 28/17 Q1012 NOSIG
TAF VEBD 240330Z 2406/2418 06010KT 6000 SCT030 SCT090 
     TEMPO 2409/2412 FEW030TCU 
     BECMG 2412/2418 12010KT 4000 HZ SCT030 SCT090
       
VOBG 240700Z 27008KT 9999 SCT012 32/13 Q1015
TAF VOBG 240500Z 2406/2415 18005KT 6000 FEW015 
     BECMG 2408/2409 VRB03KT 
     BECMG 2414/2415 11010KT
       
TAF VABV 240200Z 2403/2412 02005KT 4000 FU NSC 
     BECMG 2404/2406 05008KT 6000
       
VABP 240600Z 11008KT 8000 NSC 33/04 Q1017 NOSIG
TAF VABP 240500Z 2406/2415 14010KT 6000 NSC
       
VEBS 240700Z 32003KT 5000 HZ NSC 36/17 Q1011 NOSIG
TAF VEBS 240500Z 2406/2415 34003KT 4000 HZ NSC 
     BECMG 2413/2415 3000 HZ
       
TAF VABJ 240500Z 2406/2415 35006KT 6000 NSC
       
VERC 240700Z 32004KT 6000 NSC 30/03 Q1015 NOSIG
TAF VERC 240500Z 2406/2415 34008KT 6000 NSC 
     BECMG 2413/2415 32004KT 5000 HZ
       
VOCL 240700Z 24008KT 8000 FEW015 34/22 Q1010 NOSIG
TAF VOCL 240500Z 2406/2415 28010KT 6000 FEW015
       
VICG 240630Z 32013KT 6000 FEW120 BKN250 26/12 Q1014 TEMPO 32015G25KT
TAF VICG 240330Z 2406/2418 30010KT 6000 FEW030 SCT100 BKN250 
     TEMPO 2408/2412 30012KTG22KT FEW030TCU 
     PROB30 
     TEMPO 2415/2418 30007KT 6000 -RA FEW030 BKN090
       
VOMM 240700Z 19008KT 8000 FEW020 36/22 Q1011 NOSIG
TAF VOMM 240500Z 2406/2512 20005KT 6000 FEW020 
     BECMG 2409/2410 14010KT 
     BECMG 2418/2419 20005KT 
     TEMPO 2500/2503 4000 BR 
     BECMG 2509/2510 14010KT
       
VABB 240700Z 29009KT 3000 FU NSC 36/16 Q1010 NOSIG
TAF VABB 240500Z 2406/2512 26010KT 4000 FU NSC 
     BECMG 2410/2412 32010KT 5000 FU 
     BECMG 2417/2419 05004KT 3000 FU 
     BECMG 2422/2424 34005KT 
     BECMG 2502/2504 00000KT 2500 HZ FU 
     BECMG 2506/2508 26010KT 4000 FU 
     BECMG 2510/2512 32010KT 5000 FU
       
VOCI 240700Z 35004KT 5000 HZ SCT015 35/23 Q1010 NOSIG
TAF VOCI 240500Z 2406/2415 30010KT 6000 FEW015 
     TEMPO 2412/2415 4000 HZ TS FEW015 FEW025CB SCT080
       
VOCB 240700Z VRB03KT 6000 NSC 35/16 Q1013 NOSIG
TAF VOCB 240500Z 2406/2512 07005KT 6000 FEW015 
     BECMG 2415/2416 20005KT 5000 HZ 
     BECMG 2421/2422 4000 BR 
     BECMG 2505/2506 07005KT 6000
       
VOCP 240700Z 12007KT 6000 FEW020 38/21 Q1009
TAF VOCP 240500Z 2406/2415 13007KT 6000 SCT015 SCT100 
     BECMG 2413/2414 07006KT 5000 HZ FEW020
       
VIDN 240700Z 34005KT 6000 SCT080 29/07 Q1012
TAF VIDN 240500Z 2406/2415 25008KT 6000 FEW080 
     BECMG 2413/2414 03004KT 4000 HZ
       
VAID 240600Z 00000KT 6000 NSC 33/07 Q1017 NOSIG
TAF VAID 240500Z 2406/2415 16010KT 5000 HZ NSC
       
VEMN 240700Z 28002KT 5000 HZ FEW025 28/15 Q1011 NOSIG
TAF VEMN 240500Z 2406/2415 05005KT 5000 HZ N S C 
     BECMG 2413/2415 3000 HZ BR FEW020 SCT100
       
VEGK 240630Z 27005KT 8000 SKC 30/13 Q1011 NOSIG
TAF VEGK 240330Z 2406/2418 29010KT 6000 NSC
       
VEGT 240700Z 01008KT 3000 HZ FEW020 SCT100 31/17 Q1011 NOSIG
TAF VEGT 240500Z 2406/2415 05006KT 3000 HZ FEW020 SCT100 
     TEMPO 2410/2412 32010G17KT 1500 DU HZ 
     BECMG 2413/2415 00000KT 2000 HZ
       
VIGR 240630Z 25005KT 6000 SKC 32/08 Q1014 NOSIG
TAF VIGR 240330Z 2406/2418 28010KT 6000 NSC 
     BECMG 2408/2410 22005KT 6000 FEW040 SCT250 
     BECMG 2412/2414 24005KT 6000 FEW040 SCT120(.)TAF VIJO 240330Z 2406/2418
22005KT 6000 FEW250 
     BECMG 2410/2411 29008KT SCT100 SCT250 
     TEMPO 2411/2413 5000 HZ
       
VOHY 240700Z 04004KT 6000 NSC 36/16 Q1015 NOSIG
TAF VOHY 240500Z 2406/2415 16008KT 6000 FEW020 SCT025 
     TEMPO 2410/2413 FEW030TCU 
       
VEIM 240700Z 19006KT 5000 HZ FEW018 SCT100 28/13 Q1013 NOSIG
TAF VEIM 240500Z 2406/2415 14005KT 3000 HZ FEW020 SCT100 
     BECMG 2412/2415 00000KT 2000 HZ FEW020 SCT100
       
VIDP 240700Z 31009KT 3000 HZ NSC 30/11 Q1013 NOSIG
TAF VIDP 240500Z 2406/2512 29008G18KT 3000 HZ NSC 
     BECMG 2408/2410 5000 HZ FEW035 SCT100 
     TEMPO 2411/2413 FEW035TCU 
     BECMG 2420/2422 35004KT 3000 HZ SCT035 BKN100 
     BECMG 2423/2503 FEW035CB 
     BECMG 2506/2508 15008KT 4000 HZ -RA SCT035 BKN090
       
VAJB 240630Z 20004KT 6000 NSC 31/05 Q1016
TAF VAJB 240500Z 2406/2415 32005KT 5000 HZ NSC
       
VIJP 240700Z 22008KT 4000 HZ NSC 32/04 Q1014 NOSIG
TAF VIJP 240500Z 2406/2512 18005KT 5000 HZ FEW100 
     BECMG 2412/2414 36005KT 3000 HZ FEW035 SCT100 
     BECMG 2504/2506 09005KT HZ 5000 HZ SCT035 SCT100
       
VIJU 240630Z VRB02KT 5000 HZ BKN080 BKN200 22/12 Q1015 NOSIG
TAF VAJM 240330Z 2406/2418 32010KT 6000 SKC 
     BECMG 2412/2414 25010KT
       
VEJS 240700Z 33004KT 6000 NSC 34/07 Q1011
TAF VEJS 240200Z 2403/2412 00000KT 4000 HZ NSC 
     BECMG 2408/2410 32005KT 6000
       
TAF VIJO 240500Z 2406/2415 14005KT 5000 HZ SCT100 
     BECMG 2412/2414 07005KT 3000 HZ SCT035 SCT100
       
TAF VEJT 240330Z 2406/2418 05005KT 6000 FEW030 SCT100 SCT250 
     TEMPO 2415/2418 6000 RA SCT025 FEW030TCU SCT090
       
VIGG 240700Z 24002KT 6000 SCT035 OVC100 22/13 Q1018
TAF VIGG 232300Z 2400/2409 VRB02KT 5000 BR HZ FEW010 SCT025 BKN080 
     BECMG 2400/2409 FEW030CB
       
TAF VAKP 240500Z 2406/2415 32005KT 5000 HZ NSC 
     BECMG 2409/2411 23004KT 
     BECMG 2413/2415 02004KT 4000 HZ
       
VIKO 240600Z 05002KT 6000 NSC 33/06 Q1016 NOSIG
VIBR 240600Z 00000KT 6000 SCT030 BKN080 18/07 Q1019
TAF VIBR 240500Z 2406/2415 VRB02KT 6000 FEW030 SCT080
       
VILH 240630Z 17003KT 6000 FEW070 SCT100 BKN150 08/-1 Q1025 NOSIG
TAF VILH 240330Z 2406/2418 28010KT 6000 FEW060 SCT150 
     TEMPO 2408/2412 29010G20KT
       
VELP 240700Z 04005KT 5000 HZ FEW018 31/10 Q1012 NOSIG
TAF VELP 240500Z 2406/2415 17003KT 5000 HZ FEW018
       
TAF VELR 232300Z 2400/2409 00000KT 2000 BR SCT018 BKN100 
     BECMG 2404/2406 09005KT 3000 BR
       
VILK 240630Z 31010KT 3000 HZ NSC 30/10 Q1012 NOSIG
TAF VILK 240500Z 2406/2512 29008KT 4000 HZ NSC 
     BECMG 2408/2410 34010KT 5000 HZ 
     BECMG 2420/2422 VRB02KT 3000 HZ NSC 
     BECMG 2504/2506 32006KT 4000 HZ
       
VILD 240330Z 31005KT 2500 HZ SCT080 22/10 Q1014
VOMD 240700Z 23004KT 6000 FEW020 37/19 Q1011 NOSIG
TAF VOMD 240500Z 2406/2512 09005KT 6000 FEW020 
     BECMG 2418/2419 00000KT 
     BECMG 2500/2501 4000 HZ 
     BECMG 2503/2504 6000 
     BECMG 2506/2507 09005KT
       
VOML 240700Z 29008KT 8000 FEW015 33/22 Q1011 NOSIG
TAF VOML 240500Z 2406/2512 11005KT 6000 FEW015 
     BECMG 2408/2409 27010KT 
     BECMG 2417/2418 VRB02KT 
     BECMG 2421/2422 10005KT 
     TEMPO 2500/2503 5000 BR FEW010 
     BECMG 2506/2507 27010KT
       
VANP 240700Z 15004KT 5000 HZ NSC 35/05 Q1013 NOSIG
TAF VANP 240500Z 2406/2512 07005KT 5000 HZ FEW025 
     BECMG 2412/2414 09005KT 4000 HZ NSC 
     BECMG 2400/2402 09003KT 2000 HZ NSC 
     BECMG 2404/2406 05005KT 5000 HZ NSC
       
VECC 240700Z 31003KT 4000 HZ NSC 33/10 Q1011 NOSIG
TAF VECC 240500Z 2406/2512 32006KT 4000 HZ NSC 
     BECMG 2413/2415 18006KT 2800 HZ 
     BECMG 2500/2502 00000KT 1400 BR 
     BECMG 2503/2505 24006KT 2800 HZ 
     BECMG 2507/2509 4000 HZ
       
VIPT 240700Z 27008KT 6000 NSC 28/10 Q1011
VEPT 240700Z 23008KT 6000 NSC 31/08 Q1010 NOSIG
TAF VEPT 240500Z 2406/2512 26005KT 5000 HZ NSC 
     BECMG 2409/2411 29008KT 6000 
     BECMG 2413/2415 27003KT 4000 HZ 
     BECMG 2421/2423 00000KT 2500 HZ 
     BECMG 2504/2506 4000 HZ 
     BECMG 2508/2510 29006KT 6000
       
VAPR 240700Z 35010G20KT 6000 NSC 34/12 Q1013
TAF VAPR 240200Z 2403/2412 32008KT 5000 HZ NSC 
     BECMG 2404/2406 28008KT 6000
       
VOPB 240600Z 08006KT 5000 HZ FEW220 33/21 Q1010 NOSIG
TAF VOPB 240300Z 2406/2415 08010KT 5000 HZ FEW016 SCT220 
     BECMG 2412/2413 VRB02KT 3500 BR
       
TAF VAPO 240330Z 2406/2418 09008KT 6000 NSC 
     BECMG 2406/2408 30008KT
       
VORY 240700Z 16005KT 6000 SCT020 36/20 Q1011 NOSIG
TAF VORY 240500Z 2406/2415 18006KT 6000 FEW015 SCT025 
     BECMG 
     BECMG 2413/2414 10005KT 5000 HZ SCT015 
       
VARK 240400Z 34010KT 6000 NSC 28/12 Q1015
TAF VARK 240500Z 2406/2415 33006KT 6000 NSC
       
VIDD 240630Z 29008KT 3500 HZ NSC 29/12 Q1013 NOSIG
VISM 240600Z 27005KT 8000 BKN080 18/09 Q1020
TAF VISM 232300Z 2400/2409 VRB02KT 6000 FEW015 SCT025 BKN080 
     BECMG 2405/2409 FEW030CB
       
TAF VASL 240500Z 2406/2415 32005KT 5000 HZ NSC 
     BECMG 2409/2411 23004KT 
     BECMG 2413/2415 02004KT 4000 HZ
       
TAF VEKU 240330Z 2406/2418 23005KT 6000 SCT025
       
VISR 240630Z 05003KT 6000 FEW025 BKN100 OVC200 12/04 Q1023 NOSIG
TAF VISR 240330Z 2406/2418 02005KT 6000 SCT100 SCT250 
     TEMPO 2411/2413 31008KT 6000 -RA SCT020 FEW025TCU SCT080
       
VASU 240630Z 03006KT 5000 FU NSC 37/11 Q1012
TAF VASU 240200Z 2403/2412 02003KT 5000 HZ NSC 
     BECMG 2404/2406 04006KT 6000 
     BECMG 2408/2410 32010KT
       
TAF VETZ 240330Z 2406/2418 05005KT 6000 FEW025 SCT150 
     TEMPO 2412/2414 21010KT FEW025 FEW030TCU SCT090 
     BECMG 2416/2418 5000 BR
       
VOTV 240700Z 28008KT 6000 FEW015 FEW025TCU 33/24 Q1010 NOSIG
TAF VOTV 240500Z 2406/2415 30010KT 6000 FEW015 
     TEMPO 2412/2415 4000 TS HZ FEW015 FEW025CB SCT080
       
VOTR 240700Z 12003KT 9999 FEW018 36/21 Q1010 NOSIG
TAF VOTR 240500Z 2406/2512 16005KT 6000 FEW018 
     BECMG 2409/2410 09010KT 
     BECMG 2421/2422 16005KT 
     BECMG 2500/2501 4000 BR 
     BECMG 2505/2506 6000 
     BECMG 2509/2510 09010KT
       
VOTP 240700Z 13008KT 6000 FEW020 37/21 Q1010
TAF VOTP 240500Z 2406/2415 24010KT 6000 FEW015 SCT025 
       
VAUD 240600Z 09003KT 5000 HZ NSC Q1016 NOSIG
TAF VAUD 240500Z 2406/2415 13005KT 5000 HZ NSC 
     BECMG 2412/2414 07005KT 3000 HZ SCT100
       
VABO 240700Z 03003KT 6000 NSC 35/11 Q1012 NOSIG
TAF VABO 240500Z 2406/2415 36005KT 6000 NSC
       
VOBZ 240630Z 16003KT 6000 NSC 34/23 Q1011 NOSIG
TAF VOBZ 240500Z 2406/2415 15007KT 6000 SCT015 SCT100 
     BECMG 2411/2413 07006KT 3000 HZ FEW020 
     BECMG 2413/2414 10005KT 1500 BR NSC